KHIO

Portland-Hillsboro Airport

Portland, Oregon, USA
KHIO 192335Z 2000/2024 VRB02KT P6SM SKC FM201000 00000KT 1/2SM FG OVC002 FM201900 34003KT P6SM SKC
Issued Valid From Valid To
Oct-19 @ 23:35 UTC
(3 hours ago)
Oct-20 @ 00:00 UTC
(2 hours ago)
Oct-21 @ 00:00 UTC
(in 22 hours)
Oct-20 @ 00:00 to Oct-20 @ 10:00
KHIO 192335Z 2000/2024 VRB02KT P6SM SKC
Wind Visibility Clouds
Variable at 2 knots Greater than 6 miles
  • Clear skies
From Oct-20 @ 10:00 to Oct-20 @ 19:00
FM201000 00000KT 1/2SM FG OVC002
Visibility Clouds Conditions
1/2 miles
  • Overcast at 200' AGL
  • Fog
From Oct-20 @ 19:00 to Oct-21 @ 00:00
FM201900 34003KT P6SM SKC
Wind Visibility Clouds
340° at 3 knots Greater than 6 miles
  • Clear skies
KHIO 192335Z 2000/2024 VRB02KT P6SM SKC FM201000 00000KT 1/2SM FG OVC002 FM201900 34003KT P6SM SKC
Issued Oct-19 @ 23:35 UTC
(3 hours ago)
Valid From Oct-20 @ 00:00 UTC
(2 hours ago)
Valid To Oct-21 @ 00:00 UTC
(in 22 hours)
Oct-20 @ 00:00 - Oct-20 @ 10:00
Wind Visibility
Variable at 2 knots Greater than 6 miles
Clouds
  • Clear skies
From Oct-20 @ 10:00 - Oct-20 @ 19:00
Clouds
  • Overcast at 200' AGL
Conditions
  • Fog
From Oct-20 @ 19:00 - Oct-21 @ 00:00
Wind Visibility
340° at 3 knots Greater than 6 miles
Clouds
  • Clear skies